Time,TemperatureF,DewpointF,PressureIn,WindDirection,WindDirectionDegrees,WindSpeedMPH,WindSpeedGustMPH,Humidity,HourlyPrecipIn,Conditions,Clouds,dailyrainin,SoftwareType,DateUTC
2013-05-20 01:22:00,72.3,40.8,29.95,NNE,29,0.0,0.0,32,0.00, ,SKC,-99.99,VWS V12.07,2013-05-19 22:22:00,
2013-05-20 01:28:00,72.1,40.7,29.95,NNE,29,0.0,0.0,32,0.00, ,SKC,-99.99,VWS V12.07,2013-05-19 22:28:00,
2013-05-20 01:33:00,72.1,41.5,29.95,NNE,29,0.0,0.0,33,0.00, ,SKC,-99.99,VWS V12.07,2013-05-19 22:33:00,
2013-05-20 01:38:00,72.1,41.5,29.95,NNE,29,0.0,0.0,33,0.00, ,SKC,-99.99,VWS V12.07,2013-05-19 22:38:00,
2013-05-20 01:43:00,72.0,41.3,29.95,NNE,29,0.0,0.0,33,0.00, ,SKC,-99.99,VWS V12.07,2013-05-19 22:43:00,
2013-05-20 01:48:00,72.0,41.3,29.95,NNE,29,0.0,0.0,33,0.00, ,SKC,-99.99,VWS V12.07,2013-05-19 22:48:00,
2013-05-20 01:53:00,71.8,41.2,29.95,NNE,29,0.0,0.0,33,0.00, ,SKC,-99.99,VWS V12.07,2013-05-19 22:53:00,
2013-05-20 01:58:00,71.8,41.2,29.95,NNE,29,2.2,2.7,33,0.00, ,SKC,-99.99,VWS V12.07,2013-05-19 22:58:00,
2013-05-20 02:03:00,72.0,40.5,29.95,NNE,29,0.0,0.0,32,0.00, ,SKC,-99.99,VWS V12.07,2013-05-19 23:03:00,
2013-05-20 02:08:00,72.0,40.5,29.95,NNE,29,0.0,2.2,32,0.00, ,SKC,-99.99,VWS V12.07,2013-05-19 23:08:00,
2013-05-20 02:13:00,72.1,39.9,29.95,ENE,74,2.2,3.6,31,0.00, ,SKC,-99.99,VWS V12.07,2013-05-19 23:13:00,
2013-05-20 14:49:00,88.5,31.5,29.95,East,98,7.2,7.2,13,0.00, ,SKC,-99.99,VWS V12.07,2013-05-20 11:49:00,
2013-05-20 20:46:00,77.9,33.6,29.95,SSW,198,0.0,0.0,20,0.00, ,SKC,-99.99,VWS V12.07,2013-05-20 17:46:00,
2013-05-20 20:49:00,77.7,33.5,29.95,SSW,198,0.0,0.0,20,0.00, ,SKC,-99.99,VWS V12.07,2013-05-20 17:49:00,
2013-05-20 20:50:00,77.5,33.3,29.95,SSW,198,0.0,0.0,20,0.00, ,SKC,-99.99,VWS V12.07,2013-05-20 17:50:00,
2013-05-20 20:51:00,77.5,33.3,29.95,SSW,198,0.0,0.0,20,0.00, ,SKC,-99.99,VWS V12.07,2013-05-20 17:51:00,
2013-05-20 20:56:00,77.4,33.2,29.95,SSW,198,0.0,0.0,20,0.00, ,SKC,-99.99,VWS V12.07,2013-05-20 17:56:00,
2013-05-20 21:01:00,77.0,34.1,29.95,SSW,198,0.0,0.0,21,0.00, ,SKC,-99.99,VWS V12.07,2013-05-20 18:01:00,
2013-05-20 21:06:00,76.8,34.0,29.95,SSW,198,0.0,0.0,21,0.00, ,SKC,-99.99,VWS V12.07,2013-05-20 18:06:00,
2013-05-20 21:11:00,76.6,33.8,29.95,SSW,198,0.0,0.0,21,0.00, ,SKC,-99.99,VWS V12.07,2013-05-20 18:11:00,
2013-05-20 21:16:00,76.5,34.8,29.95,SSW,198,0.0,0.0,22,0.00, ,SKC,-99.99,VWS V12.07,2013-05-20 18:16:00,
2013-05-20 21:21:00,76.3,34.7,29.95,SSW,198,0.0,0.0,22,0.00, ,SKC,-99.99,VWS V12.07,2013-05-20 18:21:00,
2013-05-20 21:26:00,76.1,34.5,29.95,SSW,198,0.0,0.0,22,0.00, ,SKC,-99.99,VWS V12.07,2013-05-20 18:26:00,
2013-05-20 21:31:00,75.9,34.4,29.95,SSW,198,0.0,0.0,22,0.00, ,SKC,-99.99,VWS V12.07,2013-05-20 18:31:00,
2013-05-20 21:36:00,75.7,34.2,29.95,SSW,198,0.0,0.0,22,0.00, ,SKC,-99.99,VWS V12.07,2013-05-20 18:36:00,
2013-05-20 21:41:00,75.6,34.1,29.95,South,182,0.0,0.0,22,0.00, ,SKC,-99.99,VWS V12.07,2013-05-20 18:41:00,
2013-05-20 21:46:00,75.6,32.9,29.95,West,264,0.0,3.1,21,0.00, ,SKC,-99.99,VWS V12.07,2013-05-20 18:46:00,
2013-05-20 21:51:00,75.4,32.8,29.95,West,263,0.0,3.1,21,0.00, ,SKC,-99.99,VWS V12.07,2013-05-20 18:51:00,
2013-05-20 21:56:00,75.2,32.6,29.95,West,274,0.0,4.0,21,0.00, ,SKC,-99.99,VWS V12.07,2013-05-20 18:56:00,
2013-05-20 22:02:00,75.2,32.6,29.95,WNW,289,0.0,0.0,21,0.00, ,SKC,-99.99,VWS V12.07,2013-05-20 19:02:00,
2013-05-20 22:07:00,75.2,32.6,29.95,WNW,283,0.0,5.8,21,0.00, ,SKC,-99.99,VWS V12.07,2013-05-20 19:07:00,
2013-05-20 22:12:00,75.2,32.6,29.95,West,277,3.6,5.8,21,0.00, ,SKC,-99.99,VWS V12.07,2013-05-20 19:12:00,
2013-05-20 22:17:00,75.2,32.6,29.95,West,277,0.0,5.8,21,0.00, ,SKC,-99.99,VWS V12.07,2013-05-20 19:17:00,
2013-05-20 22:22:00,75.4,31.6,29.95,SW,231,0.0,5.4,20,0.00, ,SKC,-99.99,VWS V12.07,2013-05-20 19:22:00,